sensor_id;sensor_type;location;lat;lon;timestamp;P1;durP1;ratioP1;P2;durP2;ratioP2
78508;SDS011;67802;50.846;7.958;2023-05-07T00:01:25;2.55;;;0.82;;
78508;SDS011;67802;50.846;7.958;2023-05-07T00:03:50;1.58;;;0.85;;
78508;SDS011;67802;50.846;7.958;2023-05-07T00:06:16;1.85;;;0.98;;
78508;SDS011;67802;50.846;7.958;2023-05-07T00:08:42;1.38;;;0.80;;
78508;SDS011;67802;50.846;7.958;2023-05-07T00:11:07;1.88;;;0.90;;
78508;SDS011;67802;50.846;7.958;2023-05-07T00:13:32;2.05;;;0.80;;
78508;SDS011;67802;50.846;7.958;2023-05-07T00:16:00;1.58;;;0.80;;
78508;SDS011;67802;50.846;7.958;2023-05-07T00:18:26;2.92;;;1.13;;
78508;SDS011;67802;50.846;7.958;2023-05-07T00:20:52;2.03;;;0.93;;
78508;SDS011;67802;50.846;7.958;2023-05-07T00:23:17;1.85;;;0.88;;
78508;SDS011;67802;50.846;7.958;2023-05-07T00:25:42;2.53;;;0.90;;
78508;SDS011;67802;50.846;7.958;2023-05-07T00:28:08;1.77;;;0.83;;
78508;SDS011;67802;50.846;7.958;2023-05-07T00:30:33;1.23;;;0.70;;
78508;SDS011;67802;50.846;7.958;2023-05-07T00:32:58;3.55;;;0.90;;
78508;SDS011;67802;50.846;7.958;2023-05-07T00:35:24;1.83;;;0.80;;
78508;SDS011;67802;50.846;7.958;2023-05-07T00:37:49;1.88;;;0.90;;
78508;SDS011;67802;50.846;7.958;2023-05-07T00:40:14;2.20;;;0.90;;
78508;SDS011;67802;50.846;7.958;2023-05-07T00:42:40;2.10;;;1.00;;
78508;SDS011;67802;50.846;7.958;2023-05-07T00:45:05;1.95;;;0.90;;
78508;SDS011;67802;50.846;7.958;2023-05-07T00:47:32;2.05;;;0.80;;
78508;SDS011;67802;50.846;7.958;2023-05-07T00:49:58;1.75;;;0.90;;
78508;SDS011;67802;50.846;7.958;2023-05-07T00:52:23;2.20;;;0.90;;
78508;SDS011;67802;50.846;7.958;2023-05-07T00:54:50;1.85;;;1.05;;
78508;SDS011;67802;50.846;7.958;2023-05-07T00:57:16;1.10;;;0.70;;
78508;SDS011;67802;50.846;7.958;2023-05-07T00:59:42;2.40;;;0.90;;
78508;SDS011;67802;50.846;7.958;2023-05-07T01:02:07;1.40;;;0.82;;
78508;SDS011;67802;50.846;7.958;2023-05-07T01:04:33;2.58;;;1.00;;
78508;SDS011;67802;50.846;7.958;2023-05-07T01:06:58;1.60;;;0.80;;
78508;SDS011;67802;50.846;7.958;2023-05-07T01:09:25;1.92;;;1.00;;
78508;SDS011;67802;50.846;7.958;2023-05-07T01:11:52;1.80;;;0.90;;
78508;SDS011;67802;50.846;7.958;2023-05-07T01:14:19;1.95;;;0.90;;
78508;SDS011;67802;50.846;7.958;2023-05-07T01:16:46;2.67;;;1.00;;
78508;SDS011;67802;50.846;7.958;2023-05-07T01:19:12;1.75;;;0.80;;
78508;SDS011;67802;50.846;7.958;2023-05-07T01:21:41;2.08;;;0.90;;
78508;SDS011;67802;50.846;7.958;2023-05-07T01:24:11;1.20;;;0.80;;
78508;SDS011;67802;50.846;7.958;2023-05-07T01:26:36;1.85;;;0.90;;
78508;SDS011;67802;50.846;7.958;2023-05-07T01:29:02;1.85;;;0.82;;
78508;SDS011;67802;50.846;7.958;2023-05-07T01:31:27;1.52;;;0.85;;
78508;SDS011;67802;50.846;7.958;2023-05-07T01:33:53;1.98;;;0.90;;
78508;SDS011;67802;50.846;7.958;2023-05-07T01:36:20;2.70;;;1.02;;
78508;SDS011;67802;50.846;7.958;2023-05-07T01:38:50;2.05;;;0.90;;
78508;SDS011;67802;50.846;7.958;2023-05-07T01:41:16;2.42;;;1.00;;
78508;SDS011;67802;50.846;7.958;2023-05-07T01:43:42;2.78;;;0.90;;
78508;SDS011;67802;50.846;7.958;2023-05-07T01:46:08;1.35;;;0.82;;
78508;SDS011;67802;50.846;7.958;2023-05-07T01:48:35;1.35;;;0.75;;
78508;SDS011;67802;50.846;7.958;2023-05-07T01:51:00;1.75;;;0.80;;
78508;SDS011;67802;50.846;7.958;2023-05-07T01:53:27;2.17;;;0.90;;
78508;SDS011;67802;50.846;7.958;2023-05-07T01:55:53;1.95;;;0.90;;
78508;SDS011;67802;50.846;7.958;2023-05-07T01:58:18;1.73;;;0.80;;
78508;SDS011;67802;50.846;7.958;2023-05-07T02:00:43;2.13;;;1.00;;
78508;SDS011;67802;50.846;7.958;2023-05-07T02:03:09;2.40;;;1.00;;
78508;SDS011;67802;50.846;7.958;2023-05-07T02:05:34;2.67;;;1.08;;
78508;SDS011;67802;50.846;7.958;2023-05-07T02:08:00;1.38;;;0.75;;
78508;SDS011;67802;50.846;7.958;2023-05-07T02:10:25;2.20;;;1.00;;
78508;SDS011;67802;50.846;7.958;2023-05-07T02:12:50;1.80;;;0.87;;
78508;SDS011;67802;50.846;7.958;2023-05-07T02:15:15;1.90;;;0.90;;
78508;SDS011;67802;50.846;7.958;2023-05-07T02:18:00;1.70;;;0.90;;
78508;SDS011;67802;50.846;7.958;2023-05-07T02:20:27;1.95;;;0.88;;
78508;SDS011;67802;50.846;7.958;2023-05-07T02:22:52;2.15;;;1.00;;
78508;SDS011;67802;50.846;7.958;2023-05-07T02:25:18;1.90;;;0.90;;
78508;SDS011;67802;50.846;7.958;2023-05-07T02:27:43;1.33;;;0.80;;
78508;SDS011;67802;50.846;7.958;2023-05-07T02:30:08;2.10;;;0.95;;
78508;SDS011;67802;50.846;7.958;2023-05-07T02:35:40;1.98;;;0.90;;
78508;SDS011;67802;50.846;7.958;2023-05-07T02:38:05;1.77;;;0.80;;
78508;SDS011;67802;50.846;7.958;2023-05-07T02:40:30;1.67;;;0.90;;
78508;SDS011;67802;50.846;7.958;2023-05-07T02:42:58;1.92;;;0.90;;
78508;SDS011;67802;50.846;7.958;2023-05-07T02:45:24;1.70;;;0.80;;
78508;SDS011;67802;50.846;7.958;2023-05-07T02:47:49;1.92;;;1.00;;
78508;SDS011;67802;50.846;7.958;2023-05-07T02:50:14;2.50;;;1.10;;
78508;SDS011;67802;50.846;7.958;2023-05-07T02:52:40;2.20;;;0.95;;
78508;SDS011;67802;50.846;7.958;2023-05-07T02:55:05;1.80;;;0.90;;
78508;SDS011;67802;50.846;7.958;2023-05-07T02:57:31;1.52;;;0.85;;
78508;SDS011;67802;50.846;7.958;2023-05-07T02:59:57;2.28;;;0.98;;
78508;SDS011;67802;50.846;7.958;2023-05-07T03:02:23;1.23;;;0.85;;
78508;SDS011;67802;50.846;7.958;2023-05-07T03:04:48;2.63;;;0.85;;
78508;SDS011;67802;50.846;7.958;2023-05-07T03:07:13;1.47;;;0.80;;
78508;SDS011;67802;50.846;7.958;2023-05-07T03:09:39;2.20;;;0.95;;
78508;SDS011;67802;50.846;7.958;2023-05-07T03:12:04;1.60;;;0.85;;
78508;SDS011;67802;50.846;7.958;2023-05-07T03:14:30;1.27;;;0.90;;
78508;SDS011;67802;50.846;7.958;2023-05-07T03:16:55;2.35;;;0.90;;
78508;SDS011;67802;50.846;7.958;2023-05-07T03:19:20;1.77;;;0.85;;
78508;SDS011;67802;50.846;7.958;2023-05-07T03:21:46;2.08;;;0.90;;
78508;SDS011;67802;50.846;7.958;2023-05-07T03:24:11;1.48;;;0.82;;
78508;SDS011;67802;50.846;7.958;2023-05-07T03:26:36;2.00;;;1.00;;
78508;SDS011;67802;50.846;7.958;2023-05-07T03:29:02;2.08;;;1.05;;
78508;SDS011;67802;50.846;7.958;2023-05-07T03:31:27;2.27;;;0.97;;
78508;SDS011;67802;50.846;7.958;2023-05-07T03:33:53;2.23;;;1.00;;
78508;SDS011;67802;50.846;7.958;2023-05-07T03:36:19;2.03;;;0.90;;
78508;SDS011;67802;50.846;7.958;2023-05-07T03:38:46;2.08;;;0.90;;
78508;SDS011;67802;50.846;7.958;2023-05-07T03:41:12;2.53;;;1.00;;
78508;SDS011;67802;50.846;7.958;2023-05-07T03:43:37;1.73;;;0.90;;
78508;SDS011;67802;50.846;7.958;2023-05-07T03:46:02;2.63;;;1.10;;
78508;SDS011;67802;50.846;7.958;2023-05-07T03:48:28;2.13;;;1.00;;
78508;SDS011;67802;50.846;7.958;2023-05-07T03:50:53;2.60;;;1.00;;
78508;SDS011;67802;50.846;7.958;2023-05-07T03:53:18;2.67;;;0.90;;
78508;SDS011;67802;50.846;7.958;2023-05-07T03:55:44;1.90;;;0.90;;
78508;SDS011;67802;50.846;7.958;2023-05-07T03:58:09;2.55;;;0.90;;
78508;SDS011;67802;50.846;7.958;2023-05-07T04:00:34;2.70;;;1.02;;
78508;SDS011;67802;50.846;7.958;2023-05-07T04:03:03;2.58;;;1.08;;
78508;SDS011;67802;50.846;7.958;2023-05-07T04:05:29;2.00;;;0.90;;
78508;SDS011;67802;50.846;7.958;2023-05-07T04:07:54;1.83;;;0.90;;
78508;SDS011;67802;50.846;7.958;2023-05-07T04:10:20;1.92;;;1.00;;
78508;SDS011;67802;50.846;7.958;2023-05-07T04:12:45;1.93;;;0.90;;
78508;SDS011;67802;50.846;7.958;2023-05-07T04:15:10;1.90;;;0.90;;
78508;SDS011;67802;50.846;7.958;2023-05-07T04:17:36;1.60;;;0.90;;
78508;SDS011;67802;50.846;7.958;2023-05-07T04:20:01;1.73;;;0.90;;
78508;SDS011;67802;50.846;7.958;2023-05-07T04:22:27;2.00;;;1.00;;
78508;SDS011;67802;50.846;7.958;2023-05-07T04:24:52;2.33;;;1.00;;
78508;SDS011;67802;50.846;7.958;2023-05-07T04:27:18;1.83;;;0.93;;
78508;SDS011;67802;50.846;7.958;2023-05-07T04:29:43;2.40;;;1.00;;
78508;SDS011;67802;50.846;7.958;2023-05-07T04:32:12;2.22;;;0.90;;
78508;SDS011;67802;50.846;7.958;2023-05-07T04:34:37;1.67;;;0.95;;
78508;SDS011;67802;50.846;7.958;2023-05-07T04:37:02;2.73;;;1.10;;
78508;SDS011;67802;50.846;7.958;2023-05-07T04:39:28;2.33;;;1.10;;
78508;SDS011;67802;50.846;7.958;2023-05-07T04:41:53;2.23;;;1.00;;
78508;SDS011;67802;50.846;7.958;2023-05-07T04:44:18;2.28;;;1.00;;
78508;SDS011;67802;50.846;7.958;2023-05-07T04:46:43;2.60;;;0.90;;
78508;SDS011;67802;50.846;7.958;2023-05-07T04:49:09;2.43;;;1.00;;
78508;SDS011;67802;50.846;7.958;2023-05-07T04:51:35;1.60;;;0.90;;
78508;SDS011;67802;50.846;7.958;2023-05-07T04:54:00;2.03;;;1.00;;
78508;SDS011;67802;50.846;7.958;2023-05-07T04:56:27;2.38;;;1.00;;
78508;SDS011;67802;50.846;7.958;2023-05-07T04:58:53;1.65;;;0.93;;
78508;SDS011;67802;50.846;7.958;2023-05-07T05:01:19;3.03;;;1.10;;
78508;SDS011;67802;50.846;7.958;2023-05-07T05:03:44;1.85;;;0.90;;
78508;SDS011;67802;50.846;7.958;2023-05-07T05:06:09;1.90;;;1.00;;
78508;SDS011;67802;50.846;7.958;2023-05-07T05:08:35;2.00;;;1.00;;
78508;SDS011;67802;50.846;7.958;2023-05-07T05:11:01;1.75;;;0.85;;
78508;SDS011;67802;50.846;7.958;2023-05-07T05:13:27;2.28;;;1.15;;
78508;SDS011;67802;50.846;7.958;2023-05-07T05:15:52;3.90;;;1.20;;
78508;SDS011;67802;50.846;7.958;2023-05-07T05:18:17;2.53;;;1.10;;
78508;SDS011;67802;50.846;7.958;2023-05-07T05:20:43;2.03;;;0.90;;
78508;SDS011;67802;50.846;7.958;2023-05-07T05:23:08;2.28;;;1.13;;
78508;SDS011;67802;50.846;7.958;2023-05-07T05:25:34;1.77;;;0.95;;
78508;SDS011;67802;50.846;7.958;2023-05-07T05:27:59;1.33;;;0.80;;
78508;SDS011;67802;50.846;7.958;2023-05-07T05:30:24;1.83;;;1.07;;
78508;SDS011;67802;50.846;7.958;2023-05-07T05:32:49;2.20;;;1.00;;
78508;SDS011;67802;50.846;7.958;2023-05-07T05:35:15;2.25;;;1.00;;
78508;SDS011;67802;50.846;7.958;2023-05-07T05:37:41;1.52;;;0.90;;
78508;SDS011;67802;50.846;7.958;2023-05-07T05:40:06;2.28;;;0.95;;
78508;SDS011;67802;50.846;7.958;2023-05-07T05:42:32;3.25;;;1.27;;
78508;SDS011;67802;50.846;7.958;2023-05-07T05:44:57;2.17;;;1.00;;
78508;SDS011;67802;50.846;7.958;2023-05-07T05:47:22;2.03;;;1.00;;
78508;SDS011;67802;50.846;7.958;2023-05-07T05:49:48;1.95;;;0.93;;
78508;SDS011;67802;50.846;7.958;2023-05-07T05:52:13;2.47;;;1.10;;
78508;SDS011;67802;50.846;7.958;2023-05-07T05:54:39;1.27;;;0.82;;
78508;SDS011;67802;50.846;7.958;2023-05-07T05:57:04;1.55;;;0.90;;
78508;SDS011;67802;50.846;7.958;2023-05-07T05:59:30;3.35;;;1.20;;
78508;SDS011;67802;50.846;7.958;2023-05-07T06:01:56;2.97;;;1.10;;
78508;SDS011;67802;50.846;7.958;2023-05-07T06:04:21;2.10;;;1.02;;
78508;SDS011;67802;50.846;7.958;2023-05-07T06:06:46;2.22;;;1.00;;
78508;SDS011;67802;50.846;7.958;2023-05-07T06:09:12;2.20;;;0.98;;
78508;SDS011;67802;50.846;7.958;2023-05-07T06:11:37;2.80;;;1.20;;
78508;SDS011;67802;50.846;7.958;2023-05-07T06:14:02;3.00;;;1.20;;
78508;SDS011;67802;50.846;7.958;2023-05-07T06:16:28;3.43;;;1.10;;
78508;SDS011;67802;50.846;7.958;2023-05-07T06:18:53;2.30;;;1.10;;
78508;SDS011;67802;50.846;7.958;2023-05-07T06:21:18;2.00;;;0.93;;
78508;SDS011;67802;50.846;7.958;2023-05-07T06:23:44;4.38;;;1.10;;
78508;SDS011;67802;50.846;7.958;2023-05-07T06:26:09;2.72;;;1.08;;
78508;SDS011;67802;50.846;7.958;2023-05-07T06:28:34;3.00;;;1.20;;
78508;SDS011;67802;50.846;7.958;2023-05-07T06:31:16;2.55;;;1.10;;
78508;SDS011;67802;50.846;7.958;2023-05-07T06:33:45;3.50;;;1.30;;
78508;SDS011;67802;50.846;7.958;2023-05-07T06:36:10;1.92;;;1.02;;
78508;SDS011;67802;50.846;7.958;2023-05-07T06:38:36;3.00;;;1.03;;
78508;SDS011;67802;50.846;7.958;2023-05-07T06:41:01;2.73;;;1.13;;
78508;SDS011;67802;50.846;7.958;2023-05-07T06:43:26;3.10;;;1.30;;
78508;SDS011;67802;50.846;7.958;2023-05-07T06:45:51;2.58;;;1.15;;
78508;SDS011;67802;50.846;7.958;2023-05-07T06:48:17;3.17;;;1.10;;
78508;SDS011;67802;50.846;7.958;2023-05-07T06:50:42;2.10;;;1.10;;
78508;SDS011;67802;50.846;7.958;2023-05-07T06:53:07;2.30;;;1.10;;
78508;SDS011;67802;50.846;7.958;2023-05-07T06:55:32;2.92;;;1.30;;
78508;SDS011;67802;50.846;7.958;2023-05-07T06:57:58;2.72;;;1.20;;
78508;SDS011;67802;50.846;7.958;2023-05-07T07:00:26;2.60;;;1.20;;
78508;SDS011;67802;50.846;7.958;2023-05-07T07:02:51;2.70;;;1.20;;
78508;SDS011;67802;50.846;7.958;2023-05-07T07:05:17;2.83;;;1.33;;
78508;SDS011;67802;50.846;7.958;2023-05-07T07:07:42;2.75;;;1.20;;
78508;SDS011;67802;50.846;7.958;2023-05-07T07:10:07;2.73;;;1.20;;
78508;SDS011;67802;50.846;7.958;2023-05-07T07:12:33;2.28;;;1.15;;
78508;SDS011;67802;50.846;7.958;2023-05-07T07:14:58;4.03;;;1.20;;
78508;SDS011;67802;50.846;7.958;2023-05-07T07:17:23;3.03;;;1.20;;
78508;SDS011;67802;50.846;7.958;2023-05-07T07:19:49;2.78;;;1.30;;
78508;SDS011;67802;50.846;7.958;2023-05-07T07:22:14;4.10;;;1.20;;
78508;SDS011;67802;50.846;7.958;2023-05-07T07:24:39;3.47;;;1.50;;
78508;SDS011;67802;50.846;7.958;2023-05-07T07:27:05;3.13;;;1.37;;
78508;SDS011;67802;50.846;7.958;2023-05-07T07:29:30;3.00;;;1.33;;
78508;SDS011;67802;50.846;7.958;2023-05-07T07:31:55;4.13;;;1.42;;
78508;SDS011;67802;50.846;7.958;2023-05-07T07:34:21;2.80;;;1.30;;
78508;SDS011;67802;50.846;7.958;2023-05-07T07:36:46;2.67;;;1.23;;
78508;SDS011;67802;50.846;7.958;2023-05-07T07:39:11;2.97;;;1.40;;
78508;SDS011;67802;50.846;7.958;2023-05-07T07:41:37;3.38;;;1.48;;
78508;SDS011;67802;50.846;7.958;2023-05-07T07:44:03;2.63;;;1.30;;
78508;SDS011;67802;50.846;7.958;2023-05-07T07:46:29;2.92;;;1.38;;
78508;SDS011;67802;50.846;7.958;2023-05-07T07:48:54;2.53;;;1.20;;
78508;SDS011;67802;50.846;7.958;2023-05-07T07:51:19;3.25;;;1.30;;
78508;SDS011;67802;50.846;7.958;2023-05-07T07:53:45;3.53;;;1.40;;
78508;SDS011;67802;50.846;7.958;2023-05-07T07:56:10;3.53;;;1.48;;
78508;SDS011;67802;50.846;7.958;2023-05-07T07:58:36;3.65;;;1.60;;
78508;SDS011;67802;50.846;7.958;2023-05-07T08:01:02;3.53;;;1.55;;
78508;SDS011;67802;50.846;7.958;2023-05-07T08:03:28;4.20;;;1.70;;
78508;SDS011;67802;50.846;7.958;2023-05-07T08:05:56;4.30;;;1.70;;
78508;SDS011;67802;50.846;7.958;2023-05-07T08:08:22;3.20;;;1.43;;
78508;SDS011;67802;50.846;7.958;2023-05-07T08:10:47;4.63;;;1.60;;
78508;SDS011;67802;50.846;7.958;2023-05-07T08:13:14;3.17;;;1.45;;
78508;SDS011;67802;50.846;7.958;2023-05-07T08:15:40;4.05;;;1.63;;
78508;SDS011;67802;50.846;7.958;2023-05-07T08:18:05;3.63;;;1.70;;
78508;SDS011;67802;50.846;7.958;2023-05-07T08:20:30;3.70;;;1.75;;
78508;SDS011;67802;50.846;7.958;2023-05-07T08:22:56;3.67;;;1.58;;
78508;SDS011;67802;50.846;7.958;2023-05-07T08:25:21;5.10;;;1.90;;
78508;SDS011;67802;50.846;7.958;2023-05-07T08:27:47;3.50;;;1.48;;
78508;SDS011;67802;50.846;7.958;2023-05-07T08:30:12;4.38;;;1.92;;
78508;SDS011;67802;50.846;7.958;2023-05-07T08:32:38;3.95;;;1.80;;
78508;SDS011;67802;50.846;7.958;2023-05-07T08:35:03;3.90;;;1.40;;
78508;SDS011;67802;50.846;7.958;2023-05-07T08:37:29;3.08;;;1.50;;
78508;SDS011;67802;50.846;7.958;2023-05-07T08:39:54;3.40;;;1.67;;
78508;SDS011;67802;50.846;7.958;2023-05-07T08:42:19;4.47;;;1.90;;
78508;SDS011;67802;50.846;7.958;2023-05-07T08:44:48;3.47;;;1.63;;
78508;SDS011;67802;50.846;7.958;2023-05-07T08:47:18;3.10;;;1.55;;
78508;SDS011;67802;50.846;7.958;2023-05-07T08:49:44;3.08;;;1.50;;
78508;SDS011;67802;50.846;7.958;2023-05-07T08:52:09;3.90;;;1.60;;
78508;SDS011;67802;50.846;7.958;2023-05-07T08:54:37;3.20;;;1.60;;
78508;SDS011;67802;50.846;7.958;2023-05-07T08:57:03;3.80;;;1.85;;
78508;SDS011;67802;50.846;7.958;2023-05-07T08:59:28;3.58;;;1.63;;
78508;SDS011;67802;50.846;7.958;2023-05-07T09:01:53;4.40;;;1.77;;
78508;SDS011;67802;50.846;7.958;2023-05-07T09:04:19;3.10;;;1.50;;
78508;SDS011;67802;50.846;7.958;2023-05-07T09:06:44;3.35;;;1.60;;
78508;SDS011;67802;50.846;7.958;2023-05-07T09:09:09;3.15;;;1.55;;
78508;SDS011;67802;50.846;7.958;2023-05-07T09:11:39;3.47;;;1.55;;
78508;SDS011;67802;50.846;7.958;2023-05-07T09:14:04;3.53;;;1.70;;
78508;SDS011;67802;50.846;7.958;2023-05-07T09:16:30;3.75;;;1.85;;
78508;SDS011;67802;50.846;7.958;2023-05-07T09:18:57;3.70;;;1.60;;
78508;SDS011;67802;50.846;7.958;2023-05-07T09:21:23;4.07;;;1.70;;
78508;SDS011;67802;50.846;7.958;2023-05-07T09:23:52;3.35;;;1.70;;
78508;SDS011;67802;50.846;7.958;2023-05-07T09:26:21;3.40;;;1.60;;
78508;SDS011;67802;50.846;7.958;2023-05-07T09:28:46;3.67;;;1.65;;
78508;SDS011;67802;50.846;7.958;2023-05-07T09:31:12;3.42;;;1.60;;
78508;SDS011;67802;50.846;7.958;2023-05-07T09:33:38;4.60;;;1.73;;
78508;SDS011;67802;50.846;7.958;2023-05-07T09:36:05;3.47;;;1.65;;
78508;SDS011;67802;50.846;7.958;2023-05-07T09:38:32;3.42;;;1.60;;
78508;SDS011;67802;50.846;7.958;2023-05-07T09:41:05;3.42;;;1.70;;
78508;SDS011;67802;50.846;7.958;2023-05-07T09:43:33;4.00;;;1.70;;
78508;SDS011;67802;50.846;7.958;2023-05-07T09:46:01;5.13;;;1.70;;
78508;SDS011;67802;50.846;7.958;2023-05-07T09:48:28;4.20;;;1.88;;
78508;SDS011;67802;50.846;7.958;2023-05-07T09:50:55;3.25;;;1.50;;
78508;SDS011;67802;50.846;7.958;2023-05-07T09:53:23;3.00;;;1.40;;
78508;SDS011;67802;50.846;7.958;2023-05-07T09:55:49;3.55;;;1.60;;
78508;SDS011;67802;50.846;7.958;2023-05-07T09:58:15;3.40;;;1.65;;
78508;SDS011;67802;50.846;7.958;2023-05-07T10:00:43;2.85;;;1.40;;
78508;SDS011;67802;50.846;7.958;2023-05-07T10:03:09;3.35;;;1.60;;
78508;SDS011;67802;50.846;7.958;2023-05-07T10:05:35;3.60;;;1.73;;
78508;SDS011;67802;50.846;7.958;2023-05-07T10:08:01;3.15;;;1.50;;
78508;SDS011;67802;50.846;7.958;2023-05-07T10:10:27;3.88;;;1.90;;
78508;SDS011;67802;50.846;7.958;2023-05-07T10:12:52;3.22;;;1.42;;
78508;SDS011;67802;50.846;7.958;2023-05-07T10:15:19;5.90;;;1.63;;
78508;SDS011;67802;50.846;7.958;2023-05-07T10:17:44;4.75;;;1.60;;
78508;SDS011;67802;50.846;7.958;2023-05-07T10:20:10;3.47;;;1.60;;
78508;SDS011;67802;50.846;7.958;2023-05-07T10:22:40;3.38;;;1.70;;
78508;SDS011;67802;50.846;7.958;2023-05-07T10:25:14;3.80;;;1.50;;
78508;SDS011;67802;50.846;7.958;2023-05-07T10:28:10;4.40;;;1.50;;
78508;SDS011;67802;50.846;7.958;2023-05-07T10:33:03;3.95;;;1.98;;
78508;SDS011;67802;50.846;7.958;2023-05-07T10:35:32;4.35;;;1.70;;
78508;SDS011;67802;50.846;7.958;2023-05-07T10:38:04;2.92;;;1.48;;
78508;SDS011;67802;50.846;7.958;2023-05-07T10:40:30;2.92;;;1.40;;
78508;SDS011;67802;50.846;7.958;2023-05-07T10:42:57;3.65;;;1.55;;
78508;SDS011;67802;50.846;7.958;2023-05-07T10:45:27;4.15;;;1.70;;
78508;SDS011;67802;50.846;7.958;2023-05-07T10:48:06;4.35;;;1.40;;
78508;SDS011;67802;50.846;7.958;2023-05-07T10:50:44;4.30;;;1.80;;
78508;SDS011;67802;50.846;7.958;2023-05-07T10:55:45;3.03;;;1.50;;
78508;SDS011;67802;50.846;7.958;2023-05-07T11:00:46;6.85;;;1.75;;
78508;SDS011;67802;50.846;7.958;2023-05-07T11:03:12;4.68;;;1.70;;
78508;SDS011;67802;50.846;7.958;2023-05-07T11:05:39;4.40;;;1.83;;
78508;SDS011;67802;50.846;7.958;2023-05-07T11:08:06;4.13;;;1.70;;
78508;SDS011;67802;50.846;7.958;2023-05-07T11:10:51;3.90;;;1.70;;
78508;SDS011;67802;50.846;7.958;2023-05-07T11:16:17;6.22;;;1.60;;
78508;SDS011;67802;50.846;7.958;2023-05-07T11:18:47;3.58;;;1.70;;
78508;SDS011;67802;50.846;7.958;2023-05-07T11:21:16;7.15;;;1.65;;
78508;SDS011;67802;50.846;7.958;2023-05-07T11:23:58;3.97;;;1.40;;
78508;SDS011;67802;50.846;7.958;2023-05-07T11:26:24;2.85;;;1.42;;
78508;SDS011;67802;50.846;7.958;2023-05-07T11:28:50;3.53;;;1.60;;
78508;SDS011;67802;50.846;7.958;2023-05-07T11:31:17;3.90;;;1.60;;
78508;SDS011;67802;50.846;7.958;2023-05-07T11:33:45;3.40;;;1.60;;
78508;SDS011;67802;50.846;7.958;2023-05-07T11:36:11;3.38;;;1.60;;
78508;SDS011;67802;50.846;7.958;2023-05-07T11:38:37;3.53;;;1.60;;
78508;SDS011;67802;50.846;7.958;2023-05-07T11:41:03;3.65;;;1.70;;
78508;SDS011;67802;50.846;7.958;2023-05-07T11:43:30;4.38;;;1.67;;
78508;SDS011;67802;50.846;7.958;2023-05-07T11:48:22;4.75;;;2.00;;
78508;SDS011;67802;50.846;7.958;2023-05-07T11:50:51;4.40;;;1.45;;
78508;SDS011;67802;50.846;7.958;2023-05-07T11:53:26;3.30;;;1.60;;
78508;SDS011;67802;50.846;7.958;2023-05-07T11:55:55;3.95;;;1.50;;
78508;SDS011;67802;50.846;7.958;2023-05-07T11:58:21;4.03;;;1.55;;
78508;SDS011;67802;50.846;7.958;2023-05-07T12:00:48;3.42;;;1.50;;
78508;SDS011;67802;50.846;7.958;2023-05-07T12:03:17;2.50;;;1.35;;
78508;SDS011;67802;50.846;7.958;2023-05-07T12:05:43;3.50;;;1.63;;
78508;SDS011;67802;50.846;7.958;2023-05-07T12:08:19;3.42;;;1.58;;
78508;SDS011;67802;50.846;7.958;2023-05-07T12:10:47;3.00;;;1.40;;
78508;SDS011;67802;50.846;7.958;2023-05-07T12:13:17;3.63;;;1.45;;
78508;SDS011;67802;50.846;7.958;2023-05-07T12:15:43;3.15;;;1.40;;
78508;SDS011;67802;50.846;7.958;2023-05-07T12:18:09;3.47;;;1.50;;
78508;SDS011;67802;50.846;7.958;2023-05-07T12:20:36;2.80;;;1.30;;
78508;SDS011;67802;50.846;7.958;2023-05-07T12:23:02;2.85;;;1.40;;
78508;SDS011;67802;50.846;7.958;2023-05-07T12:25:45;3.47;;;1.50;;
78508;SDS011;67802;50.846;7.958;2023-05-07T12:28:14;4.10;;;1.70;;
78508;SDS011;67802;50.846;7.958;2023-05-07T12:30:41;3.53;;;1.40;;
78508;SDS011;67802;50.846;7.958;2023-05-07T12:33:07;3.35;;;1.38;;
78508;SDS011;67802;50.846;7.958;2023-05-07T12:35:37;2.85;;;1.40;;
78508;SDS011;67802;50.846;7.958;2023-05-07T12:38:07;2.80;;;1.30;;
78508;SDS011;67802;50.846;7.958;2023-05-07T12:40:43;3.45;;;1.52;;
78508;SDS011;67802;50.846;7.958;2023-05-07T12:43:16;3.33;;;1.40;;
78508;SDS011;67802;50.846;7.958;2023-05-07T12:45:55;3.30;;;1.40;;
78508;SDS011;67802;50.846;7.958;2023-05-07T12:48:22;3.22;;;1.27;;
78508;SDS011;67802;50.846;7.958;2023-05-07T12:50:49;3.85;;;1.55;;
78508;SDS011;67802;50.846;7.958;2023-05-07T12:53:15;4.50;;;1.30;;
78508;SDS011;67802;50.846;7.958;2023-05-07T12:55:44;2.70;;;1.33;;
78508;SDS011;67802;50.846;7.958;2023-05-07T12:58:15;3.20;;;1.38;;
78508;SDS011;67802;50.846;7.958;2023-05-07T13:00:44;3.85;;;1.50;;
78508;SDS011;67802;50.846;7.958;2023-05-07T13:03:16;3.45;;;1.50;;
78508;SDS011;67802;50.846;7.958;2023-05-07T13:05:46;3.22;;;1.52;;
78508;SDS011;67802;50.846;7.958;2023-05-07T13:08:12;2.40;;;1.20;;
78508;SDS011;67802;50.846;7.958;2023-05-07T13:10:37;3.03;;;1.42;;
78508;SDS011;67802;50.846;7.958;2023-05-07T13:13:02;2.77;;;1.13;;
78508;SDS011;67802;50.846;7.958;2023-05-07T13:15:28;2.92;;;1.42;;
78508;SDS011;67802;50.846;7.958;2023-05-07T13:17:53;3.33;;;1.48;;
78508;SDS011;67802;50.846;7.958;2023-05-07T13:20:18;3.10;;;1.50;;
78508;SDS011;67802;50.846;7.958;2023-05-07T13:22:44;3.30;;;1.40;;
78508;SDS011;67802;50.846;7.958;2023-05-07T13:25:09;3.17;;;1.10;;
78508;SDS011;67802;50.846;7.958;2023-05-07T13:27:34;3.42;;;1.50;;
78508;SDS011;67802;50.846;7.958;2023-05-07T13:30:02;4.03;;;1.52;;
78508;SDS011;67802;50.846;7.958;2023-05-07T13:32:28;2.80;;;1.30;;
78508;SDS011;67802;50.846;7.958;2023-05-07T13:34:53;3.17;;;1.50;;
78508;SDS011;67802;50.846;7.958;2023-05-07T13:37:18;3.33;;;1.33;;
78508;SDS011;67802;50.846;7.958;2023-05-07T13:39:45;3.05;;;1.40;;
78508;SDS011;67802;50.846;7.958;2023-05-07T13:42:10;2.53;;;1.20;;
78508;SDS011;67802;50.846;7.958;2023-05-07T13:44:35;3.00;;;1.40;;
78508;SDS011;67802;50.846;7.958;2023-05-07T13:47:01;2.90;;;1.37;;
78508;SDS011;67802;50.846;7.958;2023-05-07T13:49:26;4.10;;;1.58;;
78508;SDS011;67802;50.846;7.958;2023-05-07T13:51:52;3.35;;;1.33;;
78508;SDS011;67802;50.846;7.958;2023-05-07T13:54:17;2.60;;;1.20;;
78508;SDS011;67802;50.846;7.958;2023-05-07T13:56:42;2.97;;;1.40;;
78508;SDS011;67802;50.846;7.958;2023-05-07T13:59:08;2.72;;;1.20;;
78508;SDS011;67802;50.846;7.958;2023-05-07T14:01:33;2.85;;;1.33;;
78508;SDS011;67802;50.846;7.958;2023-05-07T14:03:58;2.95;;;1.63;;
78508;SDS011;67802;50.846;7.958;2023-05-07T14:06:24;2.78;;;1.30;;
78508;SDS011;67802;50.846;7.958;2023-05-07T14:08:50;4.95;;;1.42;;
78508;SDS011;67802;50.846;7.958;2023-05-07T14:11:15;2.65;;;1.20;;
78508;SDS011;67802;50.846;7.958;2023-05-07T14:13:41;3.55;;;1.38;;
78508;SDS011;67802;50.846;7.958;2023-05-07T14:16:06;3.20;;;1.57;;
78508;SDS011;67802;50.846;7.958;2023-05-07T14:18:31;3.35;;;1.45;;
78508;SDS011;67802;50.846;7.958;2023-05-07T14:20:58;3.05;;;1.35;;
78508;SDS011;67802;50.846;7.958;2023-05-07T14:23:23;3.78;;;1.60;;
78508;SDS011;67802;50.846;7.958;2023-05-07T14:25:51;3.30;;;1.48;;
78508;SDS011;67802;50.846;7.958;2023-05-07T14:28:17;3.47;;;1.50;;
78508;SDS011;67802;50.846;7.958;2023-05-07T14:30:42;2.35;;;1.30;;
78508;SDS011;67802;50.846;7.958;2023-05-07T14:33:07;2.80;;;1.20;;
78508;SDS011;67802;50.846;7.958;2023-05-07T14:35:33;3.92;;;1.70;;
78508;SDS011;67802;50.846;7.958;2023-05-07T14:37:58;4.45;;;1.50;;
78508;SDS011;67802;50.846;7.958;2023-05-07T14:40:23;2.95;;;1.40;;
78508;SDS011;67802;50.846;7.958;2023-05-07T14:42:49;3.80;;;1.70;;
78508;SDS011;67802;50.846;7.958;2023-05-07T14:45:14;3.75;;;1.63;;
78508;SDS011;67802;50.846;7.958;2023-05-07T14:47:39;3.55;;;1.70;;
78508;SDS011;67802;50.846;7.958;2023-05-07T14:50:05;3.95;;;1.70;;
78508;SDS011;67802;50.846;7.958;2023-05-07T14:52:30;3.75;;;1.85;;
78508;SDS011;67802;50.846;7.958;2023-05-07T14:54:56;4.13;;;2.00;;
78508;SDS011;67802;50.846;7.958;2023-05-07T14:57:21;4.60;;;1.83;;
78508;SDS011;67802;50.846;7.958;2023-05-07T14:59:46;3.45;;;1.58;;